createdAt,value
2018-08-16T00:00:57.998Z,1013.09
2018-08-16T00:01:57.961Z,1013.13
2018-08-16T00:02:57.966Z,1013.10
2018-08-16T00:03:58.058Z,1013.12
2018-08-16T00:04:57.975Z,1013.09
2018-08-16T00:05:57.965Z,1013.12
2018-08-16T00:06:57.976Z,1013.10
2018-08-16T00:07:57.967Z,1013.11
2018-08-16T00:08:57.979Z,1013.09
2018-08-16T00:09:57.988Z,1013.09
2018-08-16T00:10:57.983Z,1013.08
2018-08-16T00:11:57.993Z,1013.08
2018-08-16T00:12:57.977Z,1013.10
2018-08-16T00:13:58.010Z,1013.07
2018-08-16T00:14:57.995Z,1013.08
2018-08-16T00:15:58.008Z,1013.06
2018-08-16T00:16:57.989Z,1013.06
2018-08-16T00:17:57.985Z,1013.01
2018-08-16T00:18:58.011Z,1013.05
2018-08-16T00:19:57.999Z,1013.03
2018-08-16T00:20:58.001Z,1013.01
2018-08-16T00:21:58.102Z,1013.02
2018-08-16T00:22:58.002Z,1013.01
2018-08-16T00:23:58.018Z,1013.00
2018-08-16T00:24:58.021Z,1012.97
2018-08-16T00:25:58.014Z,1012.97
2018-08-16T00:26:58.028Z,1012.98
2018-08-16T00:27:58.027Z,1012.97
2018-08-16T00:28:58.023Z,1012.96
2018-08-16T00:29:58.035Z,1013.01
2018-08-16T00:30:58.035Z,1012.98
2018-08-16T00:31:58.032Z,1012.95
2018-08-16T00:32:58.030Z,1012.92
2018-08-16T00:33:58.035Z,1012.97
2018-08-16T00:34:58.048Z,1012.94
2018-08-16T00:35:58.043Z,1012.92
2018-08-16T00:36:58.051Z,1012.95
2018-08-16T00:37:58.047Z,1012.97
2018-08-16T00:38:58.049Z,1012.96
2018-08-16T00:39:58.077Z,1012.96
2018-08-16T00:40:58.065Z,1012.94
2018-08-16T00:41:58.064Z,1012.97
2018-08-16T00:42:58.096Z,1012.95
2018-08-16T00:43:58.620Z,1012.98
2018-08-16T00:44:58.622Z,1012.96
2018-08-16T00:45:59.696Z,1012.96
2018-08-16T00:46:58.067Z,1012.95
2018-08-16T00:47:58.078Z,1012.97
2018-08-16T00:48:58.083Z,1012.99
2018-08-16T00:49:58.085Z,1013.00
2018-08-16T00:50:58.074Z,1012.98
2018-08-16T00:51:58.084Z,1012.99
2018-08-16T00:52:58.079Z,1012.98
2018-08-16T00:53:58.088Z,1012.95
2018-08-16T00:54:58.092Z,1012.94
2018-08-16T00:55:58.106Z,1012.95
2018-08-16T00:56:58.112Z,1012.94
2018-08-16T00:57:58.164Z,1012.95
2018-08-16T00:58:58.103Z,1012.94
2018-08-16T00:59:58.126Z,1012.92
2018-08-16T01:00:58.105Z,1012.88
2018-08-16T01:01:58.112Z,1012.90
2018-08-16T01:02:58.125Z,1012.92
2018-08-16T01:03:58.138Z,1012.93
2018-08-16T01:04:58.154Z,1012.88
2018-08-16T01:05:58.119Z,1012.91
2018-08-16T01:06:58.136Z,1012.89
2018-08-16T01:07:58.130Z,1012.87
2018-08-16T01:08:58.134Z,1012.88
2018-08-16T01:09:58.135Z,1012.86
2018-08-16T01:10:58.126Z,1012.87
2018-08-16T01:11:58.129Z,1012.84
2018-08-16T01:12:58.137Z,1012.86
2018-08-16T01:13:58.136Z,1012.83
2018-08-16T01:14:58.148Z,1012.83
2018-08-16T01:15:58.210Z,1012.87
2018-08-16T01:16:58.159Z,1012.89
2018-08-16T01:17:58.154Z,1012.85
2018-08-16T01:18:58.154Z,1012.85
2018-08-16T01:19:58.167Z,1012.82
2018-08-16T01:20:58.161Z,1012.87
2018-08-16T01:21:58.162Z,1012.85
2018-08-16T01:22:58.161Z,1012.86
2018-08-16T01:23:58.169Z,1012.85
2018-08-16T01:24:58.161Z,1012.85
2018-08-16T01:25:58.178Z,1012.85
2018-08-16T01:26:58.186Z,1012.85
2018-08-16T01:27:58.162Z,1012.84
2018-08-16T01:28:58.199Z,1012.83
2018-08-16T01:29:58.180Z,1012.85
2018-08-16T01:30:58.190Z,1012.84
2018-08-16T01:31:58.176Z,1012.87
2018-08-16T01:32:58.185Z,1012.86
2018-08-16T01:33:58.186Z,1012.86
2018-08-16T01:34:58.223Z,1012.85
2018-08-16T01:35:58.190Z,1012.85
2018-08-16T01:36:58.191Z,1012.85
2018-08-16T01:37:58.197Z,1012.83
2018-08-16T01:38:59.146Z,1012.83
2018-08-16T01:39:58.211Z,1012.83
2018-08-16T01:40:58.208Z,1012.81
2018-08-16T01:41:58.207Z,1012.80
2018-08-16T01:42:58.206Z,1012.79
2018-08-16T01:43:58.206Z,1012.81
2018-08-16T01:44:58.218Z,1012.81
2018-08-16T01:45:58.216Z,1012.77
2018-08-16T01:46:58.222Z,1012.78
2018-08-16T01:47:58.228Z,1012.74
2018-08-16T01:48:58.228Z,1012.76
2018-08-16T01:49:58.224Z,1012.75
2018-08-16T01:50:58.229Z,1012.72
2018-08-16T01:51:59.146Z,1012.75
2018-08-16T01:52:58.237Z,1012.74
2018-08-16T01:53:58.238Z,1012.76
2018-08-16T01:54:58.246Z,1012.77
2018-08-16T01:55:58.243Z,1012.74
2018-08-16T01:56:58.243Z,1012.71
2018-08-16T01:57:58.254Z,1012.69
2018-08-16T01:58:58.250Z,1012.71
2018-08-16T01:59:58.253Z,1012.71
2018-08-16T02:00:58.255Z,1012.70
2018-08-16T02:01:58.265Z,1012.72
2018-08-16T02:02:58.261Z,1012.68
2018-08-16T02:03:58.255Z,1012.71
2018-08-16T02:04:58.262Z,1012.68
2018-08-16T02:05:58.264Z,1012.68
2018-08-16T02:06:58.268Z,1012.70
2018-08-16T02:07:58.272Z,1012.72
2018-08-16T02:08:58.275Z,1012.69
2018-08-16T02:09:58.295Z,1012.67
2018-08-16T02:10:58.298Z,1012.71
2018-08-16T02:11:58.296Z,1012.69
2018-08-16T02:12:58.282Z,1012.69
2018-08-16T02:13:58.280Z,1012.62
2018-08-16T02:14:58.285Z,1012.64
2018-08-16T02:15:58.293Z,1012.63
2018-08-16T02:16:58.291Z,1012.65
2018-08-16T02:17:58.293Z,1012.63
2018-08-16T02:18:58.295Z,1012.59
2018-08-16T02:19:58.296Z,1012.59
2018-08-16T02:20:58.298Z,1012.58
2018-08-16T02:21:58.296Z,1012.63
2018-08-16T02:22:58.331Z,1012.60
2018-08-16T02:23:58.304Z,1012.58
2018-08-16T02:24:58.312Z,1012.59
2018-08-16T02:25:58.323Z,1012.59
2018-08-16T02:26:58.314Z,1012.60
2018-08-16T02:27:58.348Z,1012.61
2018-08-16T02:28:58.321Z,1012.60
2018-08-16T02:29:58.316Z,1012.57
2018-08-16T02:30:58.322Z,1012.58
2018-08-16T02:31:58.330Z,1012.57
2018-08-16T02:32:58.371Z,1012.60
2018-08-16T02:33:58.338Z,1012.58
2018-08-16T02:34:58.324Z,1012.58
2018-08-16T02:35:58.336Z,1012.59
2018-08-16T02:36:58.329Z,1012.60
2018-08-16T02:37:58.344Z,1012.61
2018-08-16T02:38:58.342Z,1012.54
2018-08-16T02:39:58.343Z,1012.56
2018-08-16T02:40:58.344Z,1012.58
2018-08-16T02:41:58.349Z,1012.57
2018-08-16T02:42:58.350Z,1012.58
2018-08-16T02:43:58.357Z,1012.54
2018-08-16T02:44:58.359Z,1012.58
2018-08-16T02:45:59.167Z,1012.52
2018-08-16T02:46:58.366Z,1012.49
2018-08-16T02:47:58.361Z,1012.50
2018-08-16T02:48:58.368Z,1012.49
2018-08-16T02:49:58.369Z,1012.51
2018-08-16T02:50:58.538Z,1012.50
2018-08-16T02:51:58.379Z,1012.49
2018-08-16T02:52:58.378Z,1012.52
2018-08-16T02:53:58.397Z,1012.49
2018-08-16T02:54:58.399Z,1012.50
2018-08-16T02:55:58.386Z,1012.49
2018-08-16T02:56:58.388Z,1012.50
2018-08-16T02:57:58.401Z,1012.46
2018-08-16T02:58:58.391Z,1012.45
2018-08-16T02:59:58.391Z,1012.41
2018-08-16T03:00:58.387Z,1012.43
2018-08-16T03:01:58.389Z,1012.42
2018-08-16T03:02:58.397Z,1012.41
2018-08-16T03:03:58.407Z,1012.40
2018-08-16T03:04:58.416Z,1012.38
2018-08-16T03:05:58.414Z,1012.36
2018-08-16T03:06:58.407Z,1012.37
2018-08-16T03:07:58.418Z,1012.38
2018-08-16T03:08:58.421Z,1012.36
2018-08-16T03:09:58.411Z,1012.37
2018-08-16T03:10:58.414Z,1012.32
2018-08-16T03:11:58.435Z,1012.31
2018-08-16T03:12:58.429Z,1012.31
2018-08-16T03:13:58.430Z,1012.29
2018-08-16T03:14:58.425Z,1012.28
2018-08-16T03:15:58.433Z,1012.29
2018-08-16T03:16:59.179Z,1012.27
2018-08-16T03:17:58.447Z,1012.22
2018-08-16T03:18:58.435Z,1012.25
2018-08-16T03:19:58.446Z,1012.23
2018-08-16T03:20:58.452Z,1012.23
2018-08-16T03:21:58.444Z,1012.22
2018-08-16T03:22:58.449Z,1012.23
2018-08-16T03:23:58.443Z,1012.24
2018-08-16T03:24:58.441Z,1012.23
2018-08-16T03:25:58.452Z,1012.18
2018-08-16T03:26:58.468Z,1012.21
2018-08-16T03:27:58.463Z,1012.20
2018-08-16T03:28:58.458Z,1012.20
2018-08-16T03:29:58.561Z,1012.22
2018-08-16T03:30:58.466Z,1012.22
2018-08-16T03:31:58.481Z,1012.23
2018-08-16T03:32:58.471Z,1012.21
2018-08-16T03:33:58.471Z,1012.25
2018-08-16T03:34:58.469Z,1012.21
2018-08-16T03:35:58.507Z,1012.21
2018-08-16T03:36:58.472Z,1012.23
2018-08-16T03:37:58.474Z,1012.21
2018-08-16T03:38:58.483Z,1012.18
2018-08-16T03:39:58.481Z,1012.17
2018-08-16T03:40:58.490Z,1012.15
2018-08-16T03:41:58.495Z,1012.17
2018-08-16T03:42:58.487Z,1012.13
2018-08-16T03:43:58.507Z,1012.09
2018-08-16T03:44:58.512Z,1012.14
2018-08-16T03:45:58.499Z,1012.11
2018-08-16T03:46:58.507Z,1012.08
2018-08-16T03:47:58.552Z,1012.09
2018-08-16T03:48:58.495Z,1012.07
2018-08-16T03:49:58.496Z,1012.08
2018-08-16T03:50:58.526Z,1012.05
2018-08-16T03:51:58.511Z,1012.07
2018-08-16T03:52:58.514Z,1012.09
2018-08-16T03:53:58.515Z,1012.03
2018-08-16T03:54:58.523Z,1012.05
2018-08-16T03:55:58.530Z,1012.03
2018-08-16T03:56:58.530Z,1012.01
2018-08-16T03:57:58.514Z,1012.05
2018-08-16T03:58:58.525Z,1012.03
2018-08-16T03:59:58.531Z,1012.06
2018-08-16T04:00:58.535Z,1012.05
2018-08-16T04:01:58.533Z,1012.05
2018-08-16T04:02:58.537Z,1012.04
2018-08-16T04:03:58.544Z,1012.05
2018-08-16T04:04:58.547Z,1012.03
2018-08-16T04:05:58.539Z,1012.00
2018-08-16T04:06:58.541Z,1011.99
2018-08-16T04:07:58.549Z,1011.99
2018-08-16T04:08:58.552Z,1011.97
2018-08-16T04:09:58.553Z,1011.97
2018-08-16T04:10:58.551Z,1011.92
2018-08-16T04:11:58.561Z,1011.94
2018-08-16T04:12:58.560Z,1011.94
2018-08-16T04:13:58.591Z,1011.94
2018-08-16T04:14:58.560Z,1011.93
2018-08-16T04:15:58.559Z,1011.97
2018-08-16T04:16:58.568Z,1011.95
2018-08-16T04:17:58.569Z,1011.97
2018-08-16T04:18:58.578Z,1012.01
2018-08-16T04:19:58.601Z,1012.03
2018-08-16T04:20:58.583Z,1011.99
2018-08-16T04:21:58.579Z,1012.06
2018-08-16T04:22:58.579Z,1011.99
2018-08-16T04:23:58.680Z,1012.00
2018-08-16T04:24:58.593Z,1012.01
2018-08-16T04:25:58.582Z,1012.00
2018-08-16T04:26:58.603Z,1012.00
2018-08-16T04:27:58.595Z,1012.00
2018-08-16T04:28:58.632Z,1011.97
2018-08-16T04:29:58.614Z,1011.98
2018-08-16T04:30:58.599Z,1012.04
2018-08-16T04:31:58.645Z,1012.00
2018-08-16T04:32:58.600Z,1012.03
2018-08-16T04:33:58.620Z,1012.01
2018-08-16T04:34:58.615Z,1012.04
2018-08-16T04:35:58.636Z,1012.01
2018-08-16T04:36:58.607Z,1012.02
2018-08-16T04:37:58.624Z,1012.09
2018-08-16T04:38:58.613Z,1012.00
2018-08-16T04:39:58.621Z,1012.07
2018-08-16T04:40:58.621Z,1012.09
2018-08-16T04:41:58.773Z,1012.05
2018-08-16T04:42:58.680Z,1012.04
2018-08-16T04:43:58.635Z,1012.07
2018-08-16T04:44:58.656Z,1012.05
2018-08-16T04:45:58.631Z,1012.07
2018-08-16T04:46:58.634Z,1012.06
2018-08-16T04:47:58.670Z,1012.02
2018-08-16T04:48:58.640Z,1012.08
2018-08-16T04:49:58.637Z,1012.06
2018-08-16T04:50:58.650Z,1012.07
2018-08-16T04:51:58.645Z,1012.06
2018-08-16T04:52:58.657Z,1012.06
2018-08-16T04:53:58.645Z,1012.06
2018-08-16T04:54:58.703Z,1012.07
2018-08-16T04:55:58.652Z,1012.08
2018-08-16T04:56:58.773Z,1012.09
2018-08-16T04:57:58.656Z,1012.12
2018-08-16T04:58:58.669Z,1012.10
2018-08-16T04:59:58.693Z,1012.11
2018-08-16T05:00:58.672Z,1012.12
2018-08-16T05:01:58.675Z,1012.09
2018-08-16T05:02:58.676Z,1012.09
2018-08-16T05:03:58.667Z,1012.08
2018-08-16T05:04:58.671Z,1012.07
2018-08-16T05:05:58.688Z,1012.11
2018-08-16T05:06:58.684Z,1012.13
2018-08-16T05:07:58.719Z,1012.11
2018-08-16T05:08:58.677Z,1012.13
2018-08-16T05:09:58.721Z,1012.12
2018-08-16T05:10:58.710Z,1012.16
2018-08-16T05:11:58.689Z,1012.17
2018-08-16T05:12:58.691Z,1012.20
2018-08-16T05:13:58.697Z,1012.21
2018-08-16T05:14:58.706Z,1012.20
2018-08-16T05:15:58.710Z,1012.18
2018-08-16T05:16:58.702Z,1012.23
2018-08-16T05:17:58.701Z,1012.27
2018-08-16T05:18:58.706Z,1012.21
2018-08-16T05:19:58.699Z,1012.24
2018-08-16T05:20:58.715Z,1012.20
2018-08-16T05:21:58.716Z,1012.26
2018-08-16T05:22:58.719Z,1012.28
2018-08-16T05:23:58.749Z,1012.29
2018-08-16T05:24:58.718Z,1012.25
2018-08-16T05:25:58.734Z,1012.30
2018-08-16T05:26:58.739Z,1012.32
2018-08-16T05:27:58.763Z,1012.28
2018-08-16T05:28:58.730Z,1012.27
2018-08-16T05:29:58.732Z,1012.29
2018-08-16T05:30:58.745Z,1012.30
2018-08-16T05:31:59.852Z,1012.29
2018-08-16T05:32:58.743Z,1012.27
2018-08-16T05:33:58.745Z,1012.29
2018-08-16T05:34:58.739Z,1012.29
2018-08-16T05:35:58.799Z,1012.27
2018-08-16T05:36:58.748Z,1012.27
2018-08-16T05:37:58.751Z,1012.24
2018-08-16T05:38:58.767Z,1012.29
2018-08-16T05:39:58.761Z,1012.27
2018-08-16T05:40:58.763Z,1012.29
2018-08-16T05:41:58.761Z,1012.33
2018-08-16T05:42:58.800Z,1012.31
2018-08-16T05:43:58.767Z,1012.34
2018-08-16T05:44:58.783Z,1012.29
2018-08-16T05:45:58.774Z,1012.28
2018-08-16T05:46:58.791Z,1012.28
2018-08-16T05:47:58.784Z,1012.29
2018-08-16T05:48:58.864Z,1012.29
2018-08-16T05:49:58.796Z,1012.29
2018-08-16T05:50:59.004Z,1012.26
2018-08-16T05:51:58.832Z,1012.31
2018-08-16T05:52:58.791Z,1012.30
2018-08-16T05:53:58.809Z,1012.31
2018-08-16T05:54:58.804Z,1012.32
2018-08-16T05:55:58.807Z,1012.33
2018-08-16T05:56:58.810Z,1012.32
2018-08-16T05:57:58.817Z,1012.32
2018-08-16T05:58:58.813Z,1012.34
2018-08-16T05:59:58.837Z,1012.37
2018-08-16T06:00:58.846Z,1012.42
2018-08-16T06:01:58.841Z,1012.42
2018-08-16T06:02:58.826Z,1012.39
2018-08-16T06:03:58.852Z,1012.40
2018-08-16T06:04:58.861Z,1012.44
2018-08-16T06:05:58.841Z,1012.49
2018-08-16T06:06:58.934Z,1012.48
2018-08-16T06:07:58.847Z,1012.48
2018-08-16T06:08:58.859Z,1012.48
2018-08-16T06:09:58.865Z,1012.49
2018-08-16T06:10:58.887Z,1012.49
2018-08-16T06:11:58.872Z,1012.44
2018-08-16T06:12:58.969Z,1012.47
2018-08-16T06:13:58.890Z,1012.49
2018-08-16T06:14:58.892Z,1012.47
2018-08-16T06:15:58.897Z,1012.50
2018-08-16T06:16:58.906Z,1012.49
2018-08-16T06:17:58.906Z,1012.45
2018-08-16T06:18:58.915Z,1012.50
2018-08-16T06:19:58.959Z,1012.46
2018-08-16T06:20:58.923Z,1012.46
2018-08-16T06:21:58.924Z,1012.48
2018-08-16T06:22:58.929Z,1012.43
2018-08-16T06:23:58.960Z,1012.41
2018-08-16T06:24:58.947Z,1012.43
2018-08-16T06:25:58.954Z,1012.46
2018-08-16T06:26:58.952Z,1012.50
2018-08-16T06:27:58.990Z,1012.47
2018-08-16T06:28:58.964Z,1012.50
2018-08-16T06:29:59.772Z,1012.59
2018-08-16T06:30:59.050Z,1012.64
2018-08-16T06:31:58.986Z,1012.63
2018-08-16T06:32:58.999Z,1012.62
2018-08-16T06:33:59.001Z,1012.63
2018-08-16T06:34:58.998Z,1012.66
2018-08-16T06:35:59.007Z,1012.68
2018-08-16T06:36:59.015Z,1012.67
2018-08-16T06:37:59.019Z,1012.61
2018-08-16T06:38:59.098Z,1012.56
2018-08-16T06:39:59.040Z,1012.49
2018-08-16T06:40:59.044Z,1012.46
2018-08-16T06:41:59.070Z,1012.45
2018-08-16T06:42:59.053Z,1012.39
2018-08-16T06:43:59.070Z,1012.40
2018-08-16T06:44:59.064Z,1012.38
2018-08-16T06:45:59.078Z,1012.37
2018-08-16T06:46:59.088Z,1012.36
2018-08-16T06:47:59.084Z,1012.36
2018-08-16T06:48:59.092Z,1012.32
2018-08-16T06:49:59.102Z,1012.34
2018-08-16T06:50:59.112Z,1012.37
2018-08-16T06:51:59.120Z,1012.39
2018-08-16T06:52:59.130Z,1012.44
2018-08-16T06:53:59.131Z,1012.48
2018-08-16T06:54:59.167Z,1012.47
2018-08-16T06:55:59.154Z,1012.44
2018-08-16T06:56:59.157Z,1012.52
2018-08-16T06:57:59.779Z,1012.59
2018-08-16T06:58:59.166Z,1012.57
2018-08-16T06:59:59.167Z,1012.65
2018-08-16T07:00:59.246Z,1012.58
2018-08-16T07:01:59.197Z,1012.63
2018-08-16T07:02:59.191Z,1012.57
2018-08-16T07:03:59.198Z,1012.55
2018-08-16T07:04:59.275Z,1012.65
2018-08-16T07:05:59.207Z,1012.64
2018-08-16T07:06:59.219Z,1012.63
2018-08-16T07:07:59.225Z,1012.63
2018-08-16T07:08:59.215Z,1012.66
2018-08-16T07:09:59.255Z,1012.64
2018-08-16T07:10:59.364Z,1012.64
2018-08-16T07:11:59.316Z,1012.69
2018-08-16T07:12:59.252Z,1012.71
2018-08-16T07:13:59.266Z,1012.80
2018-08-16T07:14:59.297Z,1012.82
2018-08-16T07:15:59.296Z,1012.84
2018-08-16T07:16:59.287Z,1012.88
2018-08-16T07:17:59.332Z,1012.91
2018-08-16T07:18:59.306Z,1012.82
2018-08-16T07:19:59.309Z,1012.75
2018-08-16T07:20:59.327Z,1012.77
2018-08-16T07:21:59.339Z,1012.77
2018-08-16T07:22:59.349Z,1012.79
2018-08-16T07:23:59.360Z,1012.86
2018-08-16T07:24:59.357Z,1012.87
2018-08-16T07:25:59.374Z,1012.88
2018-08-16T07:26:59.383Z,1012.86
2018-08-16T07:27:59.408Z,1012.51
2018-08-16T07:28:59.421Z,1012.88
2018-08-16T07:29:59.498Z,1013.18
2018-08-16T07:30:59.412Z,1013.20
2018-08-16T07:31:59.458Z,1013.11
2018-08-16T07:32:59.456Z,1013.13
2018-08-16T07:34:00.304Z,1013.10
2018-08-16T07:34:59.477Z,1013.07
2018-08-16T07:35:59.481Z,1013.07
2018-08-16T07:36:59.478Z,1013.06
2018-08-16T07:37:59.488Z,1013.09
2018-08-16T07:39:00.301Z,1013.09
2018-08-16T07:39:59.521Z,1013.17
2018-08-16T07:40:59.517Z,1013.07
2018-08-16T07:41:59.573Z,1013.17
2018-08-16T07:42:59.563Z,1013.22
2018-08-16T07:43:59.556Z,1013.25
2018-08-16T07:44:59.566Z,1013.31
2018-08-16T07:45:59.667Z,1013.31
2018-08-16T07:46:59.644Z,1013.26
2018-08-16T07:48:01.306Z,1013.30
2018-08-16T07:48:59.755Z,1013.41
2018-08-16T07:49:59.635Z,1013.41
2018-08-16T07:50:59.705Z,1013.39
2018-08-16T07:51:59.764Z,1013.50
2018-08-16T07:52:59.705Z,1013.57
2018-08-16T07:53:59.691Z,1013.60
2018-08-16T07:54:59.697Z,1013.54
2018-08-16T07:55:59.730Z,1013.61
2018-08-16T07:56:59.807Z,1013.71
2018-08-16T07:57:59.730Z,1013.63
2018-08-16T07:58:59.742Z,1013.88
2018-08-16T07:59:59.747Z,1012.93
2018-08-16T08:00:59.785Z,1013.93
2018-08-16T08:01:59.933Z,1013.78
2018-08-16T08:02:59.796Z,1013.92
2018-08-16T08:03:59.805Z,1014.03
2018-08-16T08:04:59.833Z,1014.18
2018-08-16T08:05:59.823Z,1014.10
2018-08-16T08:06:59.996Z,1014.09
2018-08-16T08:07:59.848Z,1014.04
2018-08-16T08:09:00.075Z,1014.27
2018-08-16T08:09:59.885Z,1014.35
2018-08-16T08:10:59.927Z,1014.31
2018-08-16T08:11:59.974Z,1014.33
2018-08-16T08:12:59.970Z,1014.46
2018-08-16T08:13:59.987Z,1014.46
2018-08-16T08:14:59.945Z,1014.59
2018-08-16T08:15:59.956Z,1014.70
2018-08-16T08:16:59.983Z,1015.12
2018-08-16T08:17:59.985Z,1016.01
2018-08-16T08:19:00.833Z,1016.51
2018-08-16T08:20:00.036Z,1013.95
2018-08-16T08:21:00.148Z,1015.52
2018-08-16T08:22:00.044Z,1015.23
2018-08-16T08:23:00.055Z,1014.79
2018-08-16T08:24:00.095Z,1014.87
2018-08-16T08:25:00.088Z,1014.84
2018-08-16T08:26:00.122Z,1014.86
2018-08-16T08:27:00.144Z,1014.88
2018-08-16T08:28:00.844Z,1014.89
2018-08-16T08:29:00.279Z,1015.05
2018-08-16T08:30:00.184Z,1014.69
2018-08-16T08:31:00.180Z,1013.72
2018-08-16T08:32:00.199Z,1013.45
2018-08-16T08:33:00.210Z,1012.59
2018-08-16T08:34:00.297Z,1015.60
2018-08-16T08:35:00.281Z,1012.45
2018-08-16T08:36:00.244Z,1015.08
2018-08-16T08:37:00.256Z,1014.90
2018-08-16T08:38:00.277Z,1015.04
2018-08-16T08:39:00.432Z,1014.85
2018-08-16T08:40:00.320Z,1014.06
2018-08-16T08:41:00.340Z,1016.37
2018-08-16T08:42:00.351Z,1015.20
2018-08-16T08:43:00.376Z,1013.03
2018-08-16T08:44:00.373Z,1012.39
2018-08-16T08:45:00.413Z,1014.97
2018-08-16T08:46:00.421Z,1022.41
2018-08-16T08:47:01.349Z,1019.98
2018-08-16T08:48:00.556Z,1024.02
2018-08-16T08:49:00.475Z,1029.65
2018-08-16T08:50:00.459Z,1015.38
2018-08-16T08:51:00.488Z,1012.43
2018-08-16T08:52:00.478Z,1014.07
2018-08-16T08:53:00.512Z,1014.92
2018-08-16T08:54:00.523Z,1031.31
2018-08-16T08:55:03.469Z,1012.73
2018-08-16T08:56:00.581Z,1012.60
2018-08-16T08:57:01.357Z,1012.73
2018-08-16T08:58:00.565Z,1012.25
2018-08-16T08:59:00.573Z,1013.63
2018-08-16T09:00:00.586Z,1021.28
2018-08-16T09:01:00.626Z,1018.78
2018-08-16T09:02:00.636Z,1013.58
2018-08-16T09:03:00.615Z,1027.54
2018-08-16T09:04:00.664Z,1025.51
2018-08-16T09:05:00.697Z,1024.98
2018-08-16T09:06:00.667Z,1018.70
2018-08-16T09:07:01.364Z,1025.68
2018-08-16T09:08:00.686Z,1026.44
2018-08-16T09:09:00.725Z,1025.47
2018-08-16T09:10:00.719Z,1022.21
2018-08-16T09:11:00.730Z,1026.00
2018-08-16T09:12:01.367Z,1025.74
2018-08-16T09:13:00.758Z,1025.18
2018-08-16T09:14:00.777Z,1023.86
2018-08-16T09:15:00.780Z,1021.20
2018-08-16T09:16:00.840Z,1019.10
2018-08-16T09:17:00.839Z,1018.45
2018-08-16T09:18:00.835Z,1017.82
2018-08-16T09:19:00.857Z,1016.93
2018-08-16T09:20:00.877Z,1013.59
2018-08-16T09:21:00.871Z,1015.89
2018-08-16T09:22:00.995Z,1014.39
2018-08-16T09:23:00.909Z,1014.81
2018-08-16T09:24:00.981Z,1013.81
2018-08-16T09:25:00.936Z,1013.59
2018-08-16T09:26:00.945Z,1013.88
2018-08-16T09:27:00.978Z,1013.68
2018-08-16T09:28:00.980Z,1013.67
2018-08-16T09:29:00.995Z,1013.46
2018-08-16T09:30:01.015Z,1013.39
2018-08-16T09:31:01.113Z,1013.40
2018-08-16T09:32:01.887Z,1011.98
2018-08-16T09:33:01.094Z,1012.17
2018-08-16T09:34:01.064Z,1013.25
2018-08-16T09:35:01.123Z,1013.24
2018-08-16T09:36:01.101Z,1013.23
2018-08-16T09:37:01.127Z,1013.10
2018-08-16T09:38:01.127Z,1012.20
2018-08-16T09:39:01.138Z,1012.35
2018-08-16T09:40:01.169Z,1012.87
2018-08-16T09:41:01.163Z,1013.08
2018-08-16T09:42:01.214Z,1012.99
2018-08-16T09:43:01.199Z,1013.13
2018-08-16T09:44:01.264Z,1013.14
2018-08-16T09:45:01.295Z,1013.02
2018-08-16T09:46:01.254Z,1013.02
2018-08-16T09:47:01.266Z,1013.33
2018-08-16T09:48:01.275Z,1013.34
2018-08-16T09:49:01.300Z,1013.26
2018-08-16T09:50:01.349Z,1013.49
2018-08-16T09:51:01.320Z,1013.35
2018-08-16T09:52:01.338Z,1013.66
2018-08-16T09:53:01.363Z,1013.62
2018-08-16T09:54:01.372Z,1013.67
2018-08-16T09:55:01.402Z,1014.05
2018-08-16T09:56:01.424Z,1014.08
2018-08-16T09:57:01.430Z,1014.26
2018-08-16T09:58:01.457Z,1014.14
2018-08-16T09:59:01.475Z,1013.99
2018-08-16T10:00:01.489Z,1013.83
2018-08-16T10:01:01.519Z,1013.45
2018-08-16T10:02:01.582Z,1013.39
2018-08-16T10:03:01.540Z,1013.27
2018-08-16T10:04:01.572Z,1012.93
2018-08-16T10:05:01.569Z,1012.04
2018-08-16T10:06:01.584Z,1012.89
2018-08-16T10:07:01.609Z,1012.55
2018-08-16T10:08:01.618Z,1012.73
2018-08-16T10:09:01.662Z,1012.52
2018-08-16T10:10:01.721Z,1012.36
2018-08-16T10:11:01.740Z,1012.34
2018-08-16T10:12:01.795Z,1012.26
2018-08-16T10:13:01.782Z,1012.23
2018-08-16T10:14:01.761Z,1012.28
2018-08-16T10:15:01.837Z,1012.27
2018-08-16T10:18:41.921Z,1011.88
2018-08-16T10:19:34.145Z,1011.83
2018-08-16T10:20:35.872Z,1011.95
2018-08-16T10:22:34.213Z,1011.98
2018-08-16T10:23:34.284Z,1011.95
2018-08-16T10:24:34.238Z,1011.86
2018-08-16T10:25:34.259Z,1011.89
2018-08-16T10:26:34.343Z,1011.83
2018-08-16T10:27:34.341Z,1011.84
2018-08-16T10:28:34.546Z,1011.80
2018-08-16T10:29:34.318Z,1011.80
2018-08-16T10:30:34.393Z,1011.81
2018-08-16T10:31:34.403Z,1011.81
2018-08-16T10:32:34.466Z,1011.73
2018-08-16T10:33:34.433Z,1011.29
2018-08-16T10:34:34.495Z,1011.63
2018-08-16T10:35:34.495Z,1011.54
2018-08-16T10:36:34.450Z,1011.59
2018-08-16T10:37:34.491Z,1011.65
2018-08-16T10:38:34.601Z,1011.67
2018-08-16T10:39:34.548Z,1011.62
2018-08-16T10:40:34.528Z,1011.62
2018-08-16T10:41:34.652Z,1011.59
2018-08-16T10:42:34.640Z,1011.57
2018-08-16T10:43:34.730Z,1011.56
2018-08-16T10:44:34.631Z,1011.44
2018-08-16T10:45:34.616Z,1011.41
2018-08-16T10:46:34.691Z,1011.39
2018-08-16T10:47:34.689Z,1011.41
2018-08-16T10:48:34.704Z,1011.38
2018-08-16T10:49:34.739Z,1011.44
2018-08-16T10:50:34.765Z,1011.43
2018-08-16T10:51:34.778Z,1011.37
2018-08-16T10:52:34.823Z,1011.39
2018-08-16T10:53:34.830Z,1011.42
2018-08-16T10:54:34.857Z,1011.36
2018-08-16T10:55:34.871Z,1011.36
2018-08-16T10:56:34.944Z,1011.29
2018-08-16T10:57:34.910Z,1011.24
2018-08-16T10:58:35.010Z,1011.20
2018-08-16T10:59:34.957Z,1011.24
2018-08-16T11:00:34.911Z,1011.06
2018-08-16T11:01:34.965Z,1011.15
2018-08-16T11:02:34.995Z,1011.07
2018-08-16T11:03:34.986Z,1010.95
2018-08-16T11:04:35.029Z,1010.95
2018-08-16T11:05:35.049Z,1010.94
2018-08-16T11:06:35.149Z,1010.89
2018-08-16T11:07:35.152Z,1010.89
2018-08-16T11:08:35.130Z,1010.83
2018-08-16T11:09:35.133Z,1010.85
2018-08-16T11:10:35.141Z,1010.81
2018-08-16T11:11:35.199Z,1010.80
2018-08-16T11:12:35.158Z,1010.78
2018-08-16T11:13:35.182Z,1010.78
2018-08-16T11:14:35.347Z,1010.72
2018-08-16T11:15:35.154Z,1010.70
2018-08-16T11:16:35.192Z,1010.73
2018-08-16T11:17:35.226Z,1010.67
2018-08-16T11:18:35.232Z,1010.70
2018-08-16T11:19:35.241Z,1010.65
2018-08-16T11:20:35.336Z,1010.63
2018-08-16T11:21:35.284Z,1010.64
2018-08-16T11:22:35.346Z,1010.60
2018-08-16T11:23:35.334Z,1010.60
2018-08-16T11:24:35.552Z,1010.55
2018-08-16T11:25:35.419Z,1010.57
2018-08-16T11:26:35.362Z,1010.60
2018-08-16T11:27:35.360Z,1010.51
2018-08-16T11:28:35.382Z,1010.48
2018-08-16T11:29:35.419Z,1010.51
2018-08-16T11:30:35.364Z,1010.50
2018-08-16T11:31:35.418Z,1010.49
2018-08-16T11:32:35.454Z,1010.49
2018-08-16T11:33:35.674Z,1010.57
2018-08-16T11:34:35.553Z,1010.54
2018-08-16T11:35:35.459Z,1010.51
2018-08-16T11:36:35.470Z,1010.53
2018-08-16T11:37:35.930Z,1010.60
2018-08-16T11:38:36.190Z,1010.51
2018-08-16T11:39:35.519Z,1010.50
2018-08-16T11:40:35.577Z,1010.50
2018-08-16T11:41:35.856Z,1010.49
2018-08-16T11:42:35.547Z,1010.47
2018-08-16T11:43:35.547Z,1010.48
2018-08-16T11:44:35.550Z,1010.47
2018-08-16T11:45:35.581Z,1010.51
2018-08-16T11:46:35.636Z,1010.49
2018-08-16T11:47:35.624Z,1010.50
2018-08-16T11:48:35.584Z,1010.45
2018-08-16T11:49:35.603Z,1010.43
2018-08-16T11:50:35.573Z,1010.47
2018-08-16T11:51:35.586Z,1010.38
2018-08-16T11:52:35.626Z,1010.42
2018-08-16T11:53:35.650Z,1010.41
2018-08-16T11:54:35.628Z,1010.32
2018-08-16T11:55:35.660Z,1010.31
2018-08-16T11:56:38.765Z,1010.35
2018-08-16T11:57:35.731Z,1010.30
2018-08-16T11:58:36.723Z,1010.32
2018-08-16T11:59:35.738Z,1010.32
2018-08-16T12:00:35.653Z,1010.28
2018-08-16T12:01:35.790Z,1010.29
2018-08-16T12:02:35.854Z,1010.27
2018-08-16T12:03:36.374Z,1010.26
2018-08-16T12:04:38.643Z,1010.20
2018-08-16T12:05:35.770Z,1010.21
2018-08-16T12:06:35.765Z,1010.24
2018-08-16T12:07:36.445Z,1010.20
2018-08-16T12:08:35.734Z,1010.22
2018-08-16T12:09:35.805Z,1010.26